Flight Track Log - Related Links

Times and Time Zones

All times are in EDT time to prevent confusion due to time zone crossing. See the CHQ6134 flight status page for this flight to view local times or setup timezone preferences in your user account.

Time Position Orientation Groundspeed Altitude Reporting Facility
EDT Latitude Longitude Course Direction KTS MPH feet Rate Location/Type
Wed 03:48:14 PM 40.6167 -73.7667 217° Southwest 165 190 1,300  Level New York TRACON
Wed 03:49:15 PM 40.5667 -73.7667 180° South 197 227 3,400 1,810 Climbing New York TRACON
Wed 03:50:20 PM 40.5500 -73.8333 252° West 247 284 5,100 1,968 Climbing New York TRACON
Wed 03:51:00 PM 40.3894 -74.1660 229° Southwest  Level FlightAware Approximate
Wed 03:51:20 PM 40.5167 -73.9333 246° West 266 306 7,500  Level New York TRACON
Wed 03:52:00 PM 40.3270 -74.2662 232° Southwest  Level FlightAware Approximate
Wed 03:53:00 PM 40.2658 -74.3675 217° Southwest  Level FlightAware Approximate
Wed 03:53:35 PM 40.4000 -74.1042 228° Southwest 280 322 11,000  Level New York Center
Wed 03:54:35 PM 40.3533 -74.2000 237° Southwest 332 382 11,800 1,400 Climbing New York Center
Wed 03:55:35 PM 40.2958 -74.3142 237° Southwest 351 404 13,800 1,750 Climbing New York Center
Wed 03:56:35 PM 40.2492 -74.4069 237° Southwest 351 404 15,300 1,450 Climbing New York Center
Wed 03:57:35 PM 40.2058 -74.5294 245° Southwest 346 398 16,700 1,250 Climbing New York Center
Wed 03:58:35 PM 40.1997 -74.6569 266° West 339 390 17,800 1,250 Climbing New York Center
Wed 03:59:35 PM 40.1953 -74.7844 267° West 339 390 19,200 1,100 Climbing New York Center
Wed 04:00:35 PM 40.1914 -74.9011 268° West 358 412 20,000 400 Climbing New York Center
Wed 04:01:35 PM 40.1864 -75.0392 267° West 371 427 20,000  Level New York Center
Wed 04:02:35 PM 40.1808 -75.1883 267° West 389 448 20,000  Level New York Center
Wed 04:03:35 PM 40.1733 -75.3319 266° West 402 463 20,000  Level New York Center
Wed 04:04:35 PM 40.1658 -75.4728 266° West 402 463 20,000  Level New York Center
Wed 04:05:35 PM 40.1581 -75.6081 266° West 391 450 20,000  Level New York Center
Wed 04:06:35 PM 40.1528 -75.7381 267° West 378 435 20,000  Level New York Center
Wed 04:07:35 PM 40.1428 -75.8758 265° West 378 435 20,000 -300 Level New York Center
Wed 04:08:35 PM 40.1367 -76.0111 267° West 378 435 19,400 -1,100 Descending New York Center
Wed 04:09:35 PM 40.1278 -76.1653 266° West 388 447 17,800 -1,190 Descending New York Center
Wed 04:10:36 PM 40.1153 -76.2972 263° West 382 440 17,000 -400 Descending New York Center
Wed 04:11:35 PM 40.0686 -76.4047 240° Southwest 354 407 17,000 -494 Level New York Center
Wed 04:13:14 PM 39.9833 -76.5833 238° Southwest 359 413 15,700 -755 Descending Potomac TRACON
Wed 04:14:14 PM 39.9333 -76.7000 241° Southwest 364 419 15,000 -368 Descending Potomac TRACON
Wed 04:15:08 PM 39.9000 -76.7833 242° Southwest 350 403 15,000  Level Potomac TRACON
Wed 04:16:08 PM 39.8500 -76.8833 237° Southwest 334 384 15,000 -450 Level Potomac TRACON
Wed 04:17:08 PM 39.8000 -76.9833 237° Southwest 334 384 14,100 -1,190 Descending Potomac TRACON
Wed 04:18:09 PM 39.7500 -77.1000 241° Southwest 344 396 12,600 -1,438 Descending Potomac TRACON
Wed 04:19:09 PM 39.7000 -77.2000 237° Southwest 345 397 11,200 -1,300 Descending Potomac TRACON
Wed 04:20:09 PM 39.6333 -77.2833 224° Southwest 335 386 10,000 -800 Descending Potomac TRACON
Wed 04:21:09 PM 39.5333 -77.3167 194° South 286 329 9,600 -1,050 Descending Potomac TRACON
Wed 04:22:09 PM 39.4667 -77.3500 201° Southwest 271 312 7,900 -1,238 Descending Potomac TRACON
Wed 04:23:15 PM 39.3833 -77.3833 197° South 259 298 7,000 -1,000 Descending Potomac TRACON
Wed 04:24:09 PM 39.3333 -77.4167 207° Southwest 257 296 5,900 -1,500 Descending Potomac TRACON
Wed 04:25:15 PM 39.2500 -77.4500 197° South 251 289 4,000 -1,381 Descending Potomac TRACON
Wed 04:26:15 PM 39.1833 -77.4500 180° South 229 264 3,000 -522 Descending Potomac TRACON
Wed 04:27:10 PM 39.1333 -77.4500 180° South 191 220 3,000 -209 Level Potomac TRACON
Wed 04:28:10 PM 39.0833 -77.4500 180° South 171 197 2,600 -600 Descending Potomac TRACON
Wed 04:29:10 PM 39.0500 -77.4500 180° South 150 173 1,800 -750 Descending Potomac TRACON
Wed 04:30:10 PM 39.0000 -77.4667 195° South 142 163 1,100 -700 Descending Potomac TRACON

Login

Don't have an account? Register now (free) for customized features, flight alerts, and more!